Time;durP1;ratioP1;P1;durP2;ratioP2;P2;SDS_P1;SDS_P2;PMS_P1;PMS_P2;Temp;Humidity;BMP_temperature;BMP_pressure;BME280_temperature;BME280_humidity;BME280_pressure;Samples;Min_cycle;Max_cycle;Signal;HPM_P1;HPM_P2
2022/05/17 00:02:02;;;;;;;6.53;2.30;;;;;;;18.05;44.51;101594.34;5090837;28;20066;-50
2022/05/17 00:04:28;;;;;;;7.70;2.30;;;;;;;18.02;44.73;101597.22;5084181;28;20031;-51
2022/05/17 00:06:53;;;;;;;4.00;2.03;;;;;;;18.01;44.68;101595.53;5083851;28;20039;-52
2022/05/17 00:09:19;;;;;;;4.03;2.20;;;;;;;18.00;44.72;101596.50;5086642;28;20028;-48
2022/05/17 00:11:45;;;;;;;5.78;2.10;;;;;;;17.97;44.77;101601.06;5085400;28;20488;-48
2022/05/17 00:14:12;;;;;;;5.50;2.28;;;;;;;17.95;44.84;101600.31;5085717;28;20109;-50
2022/05/17 00:16:40;;;;;;;4.45;1.85;;;;;;;17.94;44.90;101600.44;5088509;28;20050;-48
2022/05/17 00:19:05;;;;;;;8.32;2.20;;;;;;;17.93;44.82;101596.91;5093115;28;20036;-51
2022/05/17 00:21:31;;;;;;;4.07;2.45;;;;;;;17.94;44.88;101590.63;5090904;28;20111;-50
2022/05/17 00:23:57;;;;;;;6.70;2.40;;;;;;;17.92;44.89;101597.88;5093377;28;20031;-51
2022/05/17 00:26:22;;;;;;;7.65;2.85;;;;;;;17.88;45.09;101599.09;5088028;28;20043;-51
2022/05/17 00:28:48;;;;;;;10.07;2.80;;;;;;;17.85;45.06;101587.84;5083632;28;20142;-48
2022/05/17 00:31:13;;;;;;;15.52;3.38;;;;;;;17.85;45.26;101590.50;5087793;28;21024;-48
2022/05/17 00:33:39;;;;;;;8.88;2.55;;;;;;;17.84;45.28;101589.63;5088539;28;20023;-50
2022/05/17 00:36:05;;;;;;;9.90;2.42;;;;;;;17.84;45.14;101586.97;5087976;28;20028;-48
2022/05/17 00:38:31;;;;;;;11.13;2.60;;;;;;;17.81;45.30;101577.41;5090258;28;20044;-51
2022/05/17 00:40:56;;;;;;;13.02;3.15;;;;;;;17.79;45.33;101575.81;5088900;28;20032;-49
2022/05/17 00:46:22;;;;;;;7.47;2.83;;;;;;;17.73;45.58;101571.78;5084883;28;20542;-50
2022/05/17 00:48:50;;;;;;;4.30;2.28;;;;;;;17.73;45.62;101571.78;5088584;28;20024;-49
2022/05/17 00:51:17;;;;;;;13.68;2.60;;;;;;;17.75;45.57;101574.34;5091596;28;20044;-49
2022/05/17 00:53:42;;;;;;;5.82;2.50;;;;;;;17.71;45.61;101575.53;5084400;28;20034;-49
2022/05/17 00:56:17;;;;;;;4.15;2.70;;;;;;;17.71;45.58;101572.88;5088635;28;20040;-50
2022/05/17 00:58:56;;;;;;;8.40;3.00;;;;;;;17.79;46.17;101567.81;5082003;28;20471;-48
2022/05/17 01:01:29;;;;;;;6.63;2.50;;;;;;;17.78;45.85;101574.09;5091734;28;20027;-49
2022/05/17 01:04:06;;;;;;;8.07;2.67;;;;;;;17.76;45.82;101573.41;5091677;28;20036;-48
2022/05/17 01:06:37;;;;;;;7.22;2.65;;;;;;;17.75;45.69;101575.19;5085366;28;20032;-48
2022/05/17 01:09:03;;;;;;;6.47;2.47;;;;;;;17.71;45.76;101579.03;5088604;28;20024;-51
2022/05/17 01:11:28;;;;;;;7.78;2.45;;;;;;;17.66;45.86;101576.72;5091144;28;20040;-49
2022/05/17 01:16:38;;;;;;;7.65;2.53;;;;;;;17.50;46.10;101576.16;5088242;28;20510;-51
2022/05/17 01:19:07;;;;;;;6.50;2.53;;;;;;;17.44;46.33;101571.31;5091975;28;20028;-49
2022/05/17 01:21:33;;;;;;;7.15;2.35;;;;;;;17.43;46.27;101577.59;5093651;28;20130;-50
2022/05/17 01:23:58;;;;;;;5.43;2.78;;;;;;;17.44;46.21;101571.31;5095352;28;20382;-49
2022/05/17 01:26:28;;;;;;;5.53;2.35;;;;;;;17.43;46.09;101574.94;5091298;28;20950;-49
2022/05/17 01:28:54;;;;;;;3.58;1.95;;;;;;;17.33;46.32;101578.25;5085908;28;20479;-48
2022/05/17 01:31:20;;;;;;;6.68;2.80;;;;;;;17.30;46.31;101575.84;5092420;28;20061;-49
2022/05/17 01:33:46;;;;;;;5.85;2.45;;;;;;;17.31;46.33;101572.22;5086901;28;20031;-48
2022/05/17 01:36:15;;;;;;;3.97;2.25;;;;;;;17.31;46.41;101574.88;5085938;28;20025;-48
2022/05/17 01:38:45;;;;;;;7.03;2.60;;;;;;;17.28;46.44;101572.44;5086833;28;20032;-50
2022/05/17 01:41:11;;;;;;;4.72;2.40;;;;;;;17.30;46.33;101573.19;5087252;28;20412;-51
2022/05/17 01:43:37;;;;;;;4.70;2.17;;;;;;;17.32;46.16;101571.25;5089128;28;20032;-48
2022/05/17 01:46:08;;;;;;;5.53;2.35;;;;;;;17.36;46.06;101570.06;5085489;28;20035;-48
2022/05/17 01:48:35;;;;;;;8.65;2.35;;;;;;;17.32;46.01;101568.56;5090127;28;20077;-48
2022/05/17 01:51:00;;;;;;;5.00;2.42;;;;;;;17.32;46.12;101570.41;5094431;28;20547;-51
2022/05/17 01:53:26;;;;;;;5.93;2.28;;;;;;;17.27;46.19;101565.44;5094033;28;20114;-50
2022/05/17 01:55:51;;;;;;;4.90;2.30;;;;;;;17.25;46.32;101572.66;5094966;28;20495;-49
2022/05/17 01:58:17;;;;;;;5.20;2.53;;;;;;;17.23;46.25;101579.06;5087955;28;20040;-50
2022/05/17 02:00:44;;;;;;;5.93;2.83;;;;;;;17.21;46.29;101582.69;5094614;28;20024;-49
2022/05/17 02:03:09;;;;;;;4.18;2.40;;;;;;;17.20;46.13;101588.09;5091981;28;20035;-49
2022/05/17 02:05:35;;;;;;;3.58;1.90;;;;;;;17.19;46.16;101592.59;5097025;28;20020;-48
2022/05/17 02:08:00;;;;;;;6.72;2.58;;;;;;;17.15;46.36;101593.75;5095360;28;20736;-47
2022/05/17 02:10:26;;;;;;;6.18;2.78;;;;;;;17.10;46.45;101589.72;5096496;28;20047;-50
2022/05/17 02:12:54;;;;;;;11.30;2.90;;;;;;;17.06;46.57;101589.94;5097028;28;20046;-51
2022/05/17 02:15:20;;;;;;;5.07;2.58;;;;;;;17.06;46.63;101589.94;5097379;28;20036;-50
2022/05/17 02:17:45;;;;;;;4.65;2.78;;;;;;;17.08;46.62;101586.34;5095572;28;20066;-49
2022/05/17 02:20:11;;;;;;;7.65;2.63;;;;;;;17.10;46.59;101585.25;5098095;28;20032;-48
2022/05/17 02:22:36;;;;;;;4.72;2.33;;;;;;;17.14;46.53;101585.91;5091292;28;20066;-49
2022/05/17 02:25:03;;;;;;;4.95;2.60;;;;;;;17.15;46.50;101587.59;5094616;28;20024;-51
2022/05/17 02:27:28;;;;;;;6.53;2.38;;;;;;;17.14;46.56;101581.41;5092777;28;20024;-49
2022/05/17 02:29:55;;;;;;;6.80;2.30;;;;;;;17.14;46.58;101585.91;5094905;28;20415;-48
2022/05/17 02:32:20;;;;;;;8.18;2.60;;;;;;;17.16;46.55;101594.63;5099075;28;20206;-52
2022/05/17 02:34:46;;;;;;;6.22;2.63;;;;;;;17.13;46.61;101597.50;5091210;28;20031;-49
2022/05/17 02:37:11;;;;;;;5.57;2.63;;;;;;;17.12;46.79;101598.47;5094175;28;20076;-48
2022/05/17 02:39:37;;;;;;;3.95;2.40;;;;;;;17.13;46.81;101597.50;5091465;28;20059;-51
2022/05/17 02:42:03;;;;;;;6.45;2.50;;;;;;;17.12;46.97;101595.78;5099831;28;20051;-50
2022/05/17 02:44:28;;;;;;;5.65;2.60;;;;;;;17.11;46.87;101594.94;5097297;28;20043;-49
2022/05/17 02:46:55;;;;;;;9.98;2.85;;;;;;;17.02;46.99;101604.41;5095246;28;20037;-50
2022/05/17 02:49:21;;;;;;;4.90;2.30;;;;;;;16.98;47.12;101602.94;5093954;28;20124;-53
2022/05/17 02:51:46;;;;;;;3.55;2.50;;;;;;;16.99;46.97;101599.34;5092538;28;20115;-50
2022/05/17 02:54:12;;;;;;;5.70;2.67;;;;;;;17.00;46.96;101600.19;5089059;28;20036;-51
2022/05/17 02:56:37;;;;;;;5.40;2.42;;;;;;;16.99;47.05;101604.66;5092312;28;20214;-50
2022/05/17 02:59:03;;;;;;;7.63;2.40;;;;;;;16.98;47.07;101605.63;5092576;28;20039;-49
2022/05/17 03:01:29;;;;;;;9.63;2.60;;;;;;;16.97;47.02;101609.22;5093411;28;20028;-49
2022/05/17 03:03:55;;;;;;;6.35;2.63;;;;;;;16.93;47.15;101607.72;5093187;28;20048;-48
2022/05/17 03:06:21;;;;;;;7.63;2.72;;;;;;;16.92;47.09;101609.53;5094846;28;20039;-50
2022/05/17 03:08:46;;;;;;;6.95;2.90;;;;;;;16.95;47.01;101613.81;5100013;28;20059;-49
2022/05/17 03:11:11;;;;;;;7.32;2.78;;;;;;;16.97;47.04;101624.31;5093571;28;20032;-50
2022/05/17 03:13:37;;;;;;;6.60;2.30;;;;;;;16.98;47.00;101629.53;5098789;28;20023;-50
2022/05/17 03:16:03;;;;;;;5.05;2.60;;;;;;;16.97;46.86;101625.19;5096493;28;20088;-50
2022/05/17 03:18:29;;;;;;;5.00;3.00;;;;;;;16.94;46.95;101617.38;5092626;28;20027;-49
2022/05/17 03:20:54;;;;;;;4.82;2.60;;;;;;;16.91;46.95;101623.78;5092803;28;20086;-50
2022/05/17 03:23:20;;;;;;;7.38;2.38;;;;;;;16.90;46.98;101626.53;5093112;28;20135;-50
2022/05/17 03:25:46;;;;;;;5.35;2.30;;;;;;;16.90;46.87;101623.88;5097444;28;20032;-49
2022/05/17 03:28:13;;;;;;;5.00;2.60;;;;;;;16.91;46.79;101625.56;5094697;28;20376;-49
2022/05/17 03:30:40;;;;;;;5.45;3.28;;;;;;;16.92;46.79;101624.63;5089886;28;20028;-51
2022/05/17 03:33:06;;;;;;;7.05;2.70;;;;;;;16.94;46.75;101630.69;5087313;28;20024;-48
2022/05/17 03:35:32;;;;;;;6.15;2.35;;;;;;;16.95;46.51;101629.75;5089242;28;20034;-48
2022/05/17 03:37:57;;;;;;;4.43;2.72;;;;;;;16.95;46.41;101628.88;5086474;28;20024;-53
2022/05/17 03:40:23;;;;;;;7.32;2.78;;;;;;;16.94;46.54;101628.03;5083011;28;20041;-51
2022/05/17 03:42:48;;;;;;;5.18;2.80;;;;;;;16.93;46.35;101636.94;5083302;28;20057;-49
2022/05/17 03:45:14;;;;;;;10.02;2.83;;;;;;;16.92;46.46;101640.56;5089596;28;20058;-49
2022/05/17 03:47:39;;;;;;;5.93;2.47;;;;;;;16.95;46.22;101635.06;5089378;28;20139;-50
2022/05/17 03:50:06;;;;;;;5.78;2.83;;;;;;;16.97;46.24;101643.78;5091530;28;20028;-49
2022/05/17 03:52:32;;;;;;;4.85;2.50;;;;;;;17.01;46.02;101644.41;5091575;28;20034;-51
2022/05/17 03:54:59;;;;;;;5.60;3.00;;;;;;;17.02;45.84;101646.94;5095354;28;20114;-50
2022/05/17 03:57:26;;;;;;;5.85;2.70;;;;;;;17.02;45.90;101641.63;5092656;28;20058;-48
2022/05/17 03:59:52;;;;;;;5.13;2.55;;;;;;;17.02;45.79;101646.94;5088307;28;20028;-50
2022/05/17 04:02:19;;;;;;;4.03;2.45;;;;;;;17.03;45.68;101646.00;5097161;28;20386;-49
2022/05/17 04:04:44;;;;;;;7.55;2.42;;;;;;;17.04;45.62;101650.34;5091103;28;20035;-50
2022/05/17 04:07:10;;;;;;;4.70;2.40;;;;;;;17.07;45.46;101649.31;5086425;28;20058;-53
2022/05/17 04:09:35;;;;;;;4.55;2.67;;;;;;;17.09;45.49;101652.72;5091286;28;20032;-51
2022/05/17 04:12:03;;;;;;;5.22;3.25;;;;;;;17.11;45.34;101655.25;5090797;28;20027;-49
2022/05/17 04:14:29;;;;;;;7.65;4.68;;;;;;;17.15;45.05;101654.09;5091385;28;20546;-50
2022/05/17 04:16:55;;;;;;;11.35;4.28;;;;;;;17.18;44.95;101656.50;5087914;28;20406;-50
2022/05/17 04:19:20;;;;;;;6.45;2.67;;;;;;;17.20;44.77;101659.91;5086101;28;20042;-53
2022/05/17 04:21:47;;;;;;;8.35;2.80;;;;;;;17.19;44.62;101668.84;5087215;28;20046;-50
2022/05/17 04:24:14;;;;;;;8.80;3.13;;;;;;;17.19;44.54;101660.84;5093371;28;20070;-50
2022/05/17 04:26:39;;;;;;;7.07;2.50;;;;;;;17.22;44.32;101658.00;5092232;28;20050;-52
2022/05/17 04:29:05;;;;;;;9.52;3.55;;;;;;;17.20;44.13;101654.59;5082523;28;20035;-51
2022/05/17 04:31:30;;;;;;;7.35;2.78;;;;;;;17.19;44.03;101663.53;5089220;28;20035;-50
2022/05/17 04:33:56;;;;;;;6.05;2.22;;;;;;;17.18;43.69;101657.38;5091099;28;20428;-50
2022/05/17 04:36:22;;;;;;;4.45;2.45;;;;;;;17.21;43.63;101667.78;5088315;28;20062;-51
2022/05/17 04:38:48;;;;;;;7.75;2.90;;;;;;;17.23;43.84;101667.66;5090318;28;20028;-51
2022/05/17 04:41:14;;;;;;;6.47;2.83;;;;;;;17.25;43.77;101668.41;5092009;28;20119;-49
2022/05/17 04:43:40;;;;;;;5.20;2.92;;;;;;;17.26;43.85;101667.44;5087859;28;20059;-49
2022/05/17 04:46:08;;;;;;;15.73;7.13;;;;;;;17.28;43.90;101668.19;5092470;28;20060;-50
2022/05/17 04:48:34;;;;;;;6.97;3.15;;;;;;;17.30;43.72;101674.25;5089088;28;20576;-50
2022/05/17 04:51:04;;;;;;;6.47;2.50;;;;;;;17.30;43.58;101674.25;5086668;28;20490;-50
2022/05/17 04:53:30;;;;;;;4.03;2.00;;;;;;;17.32;43.54;101674.16;5090325;28;20046;-50
2022/05/17 04:55:56;;;;;;;7.10;2.70;;;;;;;17.32;43.44;101674.97;5084879;28;20032;-53
2022/05/17 04:58:22;;;;;;;6.82;2.45;;;;;;;17.35;43.30;101681.91;5087791;28;20024;-49
2022/05/17 05:00:47;;;;;;;6.07;2.30;;;;;;;17.34;43.15;101680.22;5083883;28;20488;-49
2022/05/17 05:03:14;;;;;;;6.97;2.58;;;;;;;17.37;43.06;101672.00;5085920;28;20040;-49
2022/05/17 05:05:39;;;;;;;4.18;2.40;;;;;;;17.40;42.79;101671.75;5095865;28;20108;-50
2022/05/17 05:08:05;;;;;;;7.22;3.47;;;;;;;17.44;42.80;101685.72;5086574;28;20424;-49
2022/05/17 05:10:31;;;;;;;10.82;4.60;;;;;;;17.47;42.85;101688.16;5089875;28;20020;-49
2022/05/17 05:12:56;;;;;;;9.02;5.35;;;;;;;17.48;42.74;101689.84;5086469;28;20107;-47
2022/05/17 05:15:23;;;;;;;7.28;3.10;;;;;;;17.51;42.66;101686.97;5086067;28;20036;-50
2022/05/17 05:17:48;;;;;;;6.25;2.70;;;;;;;17.56;42.57;101686.63;5088052;28;20172;-50
2022/05/17 05:20:16;;;;;;;6.75;2.40;;;;;;;17.60;42.45;101688.09;5085057;28;20476;-51
2022/05/17 05:22:41;;;;;;;11.43;3.13;;;;;;;17.64;42.56;101702.91;5084038;28;20455;-50
2022/05/17 05:25:08;;;;;;;7.68;2.90;;;;;;;17.67;42.52;101708.00;5083537;28;20034;-48
2022/05/17 05:27:37;;;;;;;5.22;3.05;;;;;;;17.70;42.55;101702.44;5072195;28;20036;-48
2022/05/17 05:30:07;;;;;;;9.00;3.00;;;;;;;17.73;42.63;101699.56;5080080;28;20031;-50
2022/05/17 05:32:33;;;;;;;;;;;;;;;17.76;42.70;101698.50;5079210;28;20040;-50
2022/05/17 05:34:58;;;;;;;5.70;2.40;;;;;;;17.77;42.49;101695.72;5073586;28;21159;-51
2022/05/17 05:37:24;;;;;;;8.38;2.80;;;;;;;17.77;42.44;101694.88;5077680;28;20032;-51
2022/05/17 05:39:49;;;;;;;11.43;2.85;;;;;;;17.80;42.59;101699.94;5087739;28;20024;-50
2022/05/17 05:42:15;;;;;;;7.30;2.40;;;;;;;17.83;42.60;101699.72;5088178;28;20032;-50
2022/05/17 05:44:40;;;;;;;9.20;2.67;;;;;;;17.88;42.46;101707.38;5087882;28;20032;-52
2022/05/17 05:47:06;;;;;;;7.30;2.97;;;;;;;17.89;42.41;101703.75;5092172;28;20070;-50
2022/05/17 05:49:31;;;;;;;9.30;2.75;;;;;;;17.91;42.55;101700.03;5087265;28;20023;-51
2022/05/17 05:51:57;;;;;;;11.23;5.45;;;;;;;17.94;42.45;101689.13;5086873;28;20044;-51
2022/05/17 05:54:22;;;;;;;6.72;3.35;;;;;;;17.98;42.11;101693.31;5089165;28;20024;-52
2022/05/17 05:56:48;;;;;;;12.73;7.10;;;;;;;18.03;42.21;101690.28;5086007;28;20048;-52
2022/05/17 05:59:13;;;;;;;7.50;3.55;;;;;;;18.06;42.27;101689.25;5079328;28;20055;-52
2022/05/17 06:01:39;;;;;;;9.10;4.60;;;;;;;18.09;42.23;101689.00;5076249;28;20074;-51
2022/05/17 06:04:05;;;;;;;7.78;4.13;;;;;;;18.15;42.26;101693.03;5084500;28;20489;-50
2022/05/17 06:06:31;;;;;;;7.28;2.97;;;;;;;18.19;42.34;101694.47;5084569;28;20522;-51
2022/05/17 06:08:56;;;;;;;6.30;2.75;;;;;;;18.23;42.10;101702.13;5082644;28;20392;-48
2022/05/17 06:11:22;;;;;;;5.93;2.47;;;;;;;18.27;41.78;101703.59;5096353;28;20032;-51
2022/05/17 06:13:47;;;;;;;7.30;2.70;;;;;;;18.30;41.66;101691.88;5088000;28;20746;-48
2022/05/17 06:16:13;;;;;;;8.90;2.70;;;;;;;18.32;41.44;101702.41;5095792;28;20031;-51
2022/05/17 06:18:39;;;;;;;7.07;2.20;;;;;;;18.33;41.60;101707.59;5087430;28;20028;-50
2022/05/17 06:21:05;;;;;;;5.47;2.40;;;;;;;18.34;41.63;101705.81;5091977;28;20050;-52
2022/05/17 06:23:31;;;;;;;5.47;2.25;;;;;;;18.33;41.38;101715.59;5094102;28;20024;-50
2022/05/17 06:25:57;;;;;;;5.78;2.30;;;;;;;18.34;41.38;101722.63;5097992;28;20036;-48
2022/05/17 06:28:23;;;;;;;6.70;2.20;;;;;;;18.36;41.60;101733.19;5090339;28;20028;-48
2022/05/17 06:30:49;;;;;;;5.72;2.28;;;;;;;18.39;41.61;101724.94;5099596;28;20054;-49
2022/05/17 06:33:15;;;;;;;6.63;3.10;;;;;;;18.46;41.55;101728.00;5090489;28;20020;-48
2022/05/17 06:35:45;;;;;;;8.25;3.28;;;;;;;18.50;41.51;101735.66;5095239;28;20027;-49
2022/05/17 06:38:11;;;;;;;;;;;;;;;18.49;41.45;101728.63;5090172;28;20489;-48
2022/05/17 06:40:36;;;;;;;4.63;2.90;;;;;;;18.52;41.29;101728.41;5095757;28;20360;-51
2022/05/17 06:43:03;;;;;;;4.18;2.10;;;;;;;18.56;41.31;101729.84;5090303;28;20077;-48
2022/05/17 06:45:29;;;;;;;7.35;3.20;;;;;;;18.59;41.46;101734.13;5095850;28;20040;-50
2022/05/17 06:47:54;;;;;;;5.85;2.30;;;;;;;18.64;41.28;101736.41;5090981;28;20063;-48
2022/05/17 06:50:20;;;;;;;5.65;2.70;;;;;;;18.64;41.22;101739.91;5091286;28;20036;-49
2022/05/17 06:52:46;;;;;;;6.32;2.90;;;;;;;18.68;41.34;101743.22;5090739;28;20035;-51
2022/05/17 06:55:13;;;;;;;6.65;2.63;;;;;;;18.73;41.38;101749.03;5088302;28;20047;-52
2022/05/17 06:57:40;;;;;;;6.80;2.50;;;;;;;18.79;41.34;101750.38;5088724;28;20145;-50
2022/05/17 07:00:11;;;;;;;8.50;2.25;;;;;;;18.83;41.15;101752.69;5090528;28;20032;-51
2022/05/17 07:02:38;;;;;;;8.95;4.50;;;;;;;18.86;41.12;101760.44;5092524;28;20034;-51
2022/05/17 07:05:04;;;;;;;8.07;2.53;;;;;;;18.88;41.03;101755.03;5089651;28;20044;-48
2022/05/17 07:07:29;;;;;;;4.35;2.15;;;;;;;18.88;40.93;101755.84;5086374;28;20066;-51
2022/05/17 07:15:23;;;;;;;5.50;2.67;;;;;;;18.95;40.90;101761.59;5091855;28;20115;-50
2022/05/17 07:17:48;;;;;;;5.82;2.67;;;;;;;18.96;40.87;101763.28;5089161;28;20484;-50
2022/05/17 07:20:15;;;;;;;5.88;2.40;;;;;;;19.00;40.78;101771.91;5089951;28;20514;-50
2022/05/17 07:22:43;;;;;;;7.05;2.65;;;;;;;19.02;40.40;101773.50;5087631;28;20115;-51
2022/05/17 07:25:09;;;;;;;6.05;2.60;;;;;;;19.02;40.31;101781.50;5090175;28;20039;-49
2022/05/17 07:27:35;;;;;;;4.78;2.60;;;;;;;19.04;40.12;101784.03;5089544;28;20372;-50
2022/05/17 07:30:02;;;;;;;8.63;2.80;;;;;;;19.04;40.17;101784.91;5089071;28;20035;-51
2022/05/17 07:32:28;;;;;;;3.22;2.00;;;;;;;19.07;40.25;101791.81;5090543;28;20073;-48
2022/05/17 07:34:53;;;;;;;5.90;2.28;;;;;;;19.08;39.99;101793.50;5089562;28;20044;-48
2022/05/17 07:37:19;;;;;;;4.05;2.22;;;;;;;19.09;40.04;101799.69;5088671;28;20086;-51
2022/05/17 07:39:45;;;;;;;4.43;2.40;;;;;;;19.09;40.31;101795.22;5089883;28;20036;-50
2022/05/17 07:42:10;;;;;;;10.23;2.20;;;;;;;19.12;40.28;101799.44;5089524;28;20027;-50
2022/05/17 07:44:36;;;;;;;14.68;2.50;;;;;;;19.16;40.19;101798.25;5087677;28;20169;-50
2022/05/17 07:47:02;;;;;;;13.80;3.08;;;;;;;19.21;40.00;101800.56;5089028;28;20106;-50
2022/05/17 07:49:28;;;;;;;12.25;4.45;;;;;;;19.24;40.05;101811.81;5090343;28;20023;-50
2022/05/17 07:51:54;;;;;;;9.63;4.10;;;;;;;19.28;40.11;101812.47;5086433;28;20031;-49
2022/05/17 07:54:20;;;;;;;8.55;2.85;;;;;;;19.31;39.83;101809.53;5084995;28;20111;-51
2022/05/17 07:56:45;;;;;;;8.82;2.83;;;;;;;19.34;39.79;101815.50;5090632;28;20154;-50
2022/05/17 07:59:11;;;;;;;14.18;3.15;;;;;;;19.37;39.67;101816.19;5091031;28;20377;-46
2022/05/17 08:01:36;;;;;;;12.60;2.83;;;;;;;19.39;39.40;101822.28;5089919;28;20020;-47
2022/05/17 08:04:02;;;;;;;10.57;2.80;;;;;;;19.41;39.75;101820.34;5087696;28;20028;-49
2022/05/17 08:06:28;;;;;;;11.52;2.90;;;;;;;19.43;39.83;101821.94;5090192;28;20115;-45
2022/05/17 08:08:53;;;;;;;9.63;2.70;;;;;;;19.48;39.38;101826.91;5087697;28;20032;-46
2022/05/17 08:11:19;;;;;;;5.88;2.92;;;;;;;19.50;39.67;101820.47;5089523;28;20047;-46
2022/05/17 08:13:44;;;;;;;6.82;2.63;;;;;;;19.55;39.81;101821.94;5092048;28;20110;-52
2022/05/17 08:16:10;;;;;;;7.43;3.15;;;;;;;19.56;39.81;101831.63;5090166;28;20602;-45
2022/05/17 08:18:36;;;;;;;6.32;2.90;;;;;;;19.59;39.46;101834.03;5089282;28;20028;-45
2022/05/17 08:21:01;;;;;;;6.40;2.70;;;;;;;19.61;39.77;101830.31;5088638;28;20032;-49
2022/05/17 08:23:26;;;;;;;5.47;2.30;;;;;;;19.64;39.65;101837.22;5087153;28;20028;-50
2022/05/17 08:28:36;;;;;;;4.70;2.63;;;;;;;19.69;39.59;101839.50;5088879;28;21086;-45
2022/05/17 08:31:02;;;;;;;;;;;;;;;19.68;39.42;101836.00;5088466;28;20027;-50
2022/05/17 08:33:29;;;;;;;;;;;;;;;19.67;39.79;101834.31;5089603;28;19924;-47
2022/05/17 08:35:55;;;;;;;;;;;;;;;19.68;39.66;101833.34;5084988;28;19923;-46
2022/05/17 08:38:27;;;;;;;;;;;;;;;19.71;39.56;101832.22;5087438;28;19919;-47
2022/05/17 08:41:05;;;;;;;;;;;;;;;19.73;40.01;101825.81;5089836;28;19916;-46
2022/05/17 08:43:36;;;;;;;;;;;;;;;19.79;39.85;101824.47;5085996;28;19916;-46
2022/05/17 08:46:22;;;;;;;;;;;;;;;19.82;39.80;101829.53;5088422;28;19919;-50
2022/05/17 08:49:08;;;;;;;;;;;;;;;19.85;39.78;101831.13;5088454;28;19923;-50
2022/05/17 08:51:36;;;;;;;;;;;;;;;19.89;39.78;101840.66;5085971;28;19923;-50
2022/05/17 08:54:04;;;;;;;;;;;;;;;19.91;39.58;101833.34;5086054;28;19919;-51
2022/05/17 08:56:31;;;;;;;;;;;;;;;19.94;39.73;101827.75;5089627;28;19966;-46
2022/05/17 08:58:56;;;;;;;;;;;;;;;20.00;39.57;101831.75;5090047;28;19916;-49
2022/05/17 09:01:24;;;;;;;;;;;;;;;20.04;39.47;101833.19;5089691;28;19913;-47
2022/05/17 09:03:59;;;;;;;;;;;;;;;20.10;39.45;101833.56;5086674;28;19916;-46
2022/05/17 09:06:43;;;;;;;;;;;;;;;20.14;39.39;101833.31;5088632;28;19924;-47
2022/05/17 09:09:31;;;;;;;;;;;;;;;20.17;39.28;101828.56;5086381;28;20406;-50
2022/05/17 09:12:00;;;;;;;;;;;;;;;20.21;39.49;101837.16;5087456;28;19923;-47
2022/05/17 09:14:29;;;;;;;;;;;;;;;20.23;39.48;101837.88;5088123;28;19920;-47
2022/05/17 09:16:57;;;;;;;;;;;;;;;20.24;39.23;101836.91;5090348;28;20295;-50
2022/05/17 09:19:23;;;;;;;;;;;;;;;20.25;39.49;101835.94;5087513;28;19920;-49
2022/05/17 09:21:48;;;;;;;;;;;;;;;20.23;39.37;101837.88;5094017;28;19916;-46
2022/05/17 09:24:16;;;;;;;;;;;;;;;20.23;39.57;101838.75;5094631;28;20010;-46
2022/05/17 09:26:47;;;;;;;;;;;;;;;20.25;39.40;101841.28;5093571;28;20383;-46
2022/05/17 09:29:18;;;;;;;;;;;;;;;20.23;39.43;101838.75;5092430;28;19916;-50
2022/05/17 09:31:54;;;;;;;;;;;;;;;20.21;39.55;101834.50;5091145;28;19920;-49
2022/05/17 09:34:28;;;;;;;;;;;;;;;20.19;39.68;101841.81;5092984;28;19912;-46
2022/05/17 09:36:56;;;;;;;;;;;;;;;20.18;39.67;101845.44;5091079;28;20013;-46
2022/05/17 09:39:22;;;;;;;;;;;;;;;20.15;39.62;101837.69;5092377;28;20311;-45
2022/05/17 09:41:48;;;;;;;;;;;;;;;20.13;39.92;101835.13;5091400;28;19969;-49
2022/05/17 09:44:19;;;;;;;;;;;;;;;20.14;40.19;101838.66;5090615;28;20296;-47
2022/05/17 09:46:45;;;;;;;;;;;;;;;20.17;39.77;101838.41;5092759;28;19916;-56
2022/05/17 09:52:44;;;;;;;;;;;;;;;20.25;39.73;101847.50;5091144;28;19982;-53
2022/05/17 09:55:09;;;;;;;;;;;;;;;20.32;39.70;101846.97;5092834;28;19916;-49
2022/05/17 09:57:36;;;;;;;;;;;;;;;20.35;40.00;101846.72;5092749;28;19986;-46
2022/05/17 10:00:08;;;;;;;;;;;;;;;20.36;39.79;101849.25;5093199;28;19916;-50
2022/05/17 10:02:42;;;;;;;;;;;;;;;20.38;39.86;101847.31;5088866;28;19912;-47
2022/05/17 10:05:13;;;;;;;;;;;;;;;20.42;39.66;101842.56;5091310;28;19983;-46
2022/05/17 10:07:39;;;;;;;;;;;;;;;20.47;39.69;101850.22;5089192;28;20010;-50
2022/05/17 10:10:09;;;;;;;;;;;;;;;20.50;39.54;101845.47;5094126;28;20007;-50
2022/05/17 10:12:37;;;;;;;;;;;;;;;20.57;39.75;101856.50;5089487;28;19924;-47
2022/05/17 10:15:08;;;;;;;;;;;;;;;20.65;39.63;101861.22;5092396;28;19916;-47
2022/05/17 10:17:33;;;;;;;;;;;;;;;20.71;39.63;101860.72;5092090;28;20371;-52
2022/05/17 10:20:02;;;;;;;;;;;;;;;20.75;39.56;101854.13;5091070;28;19923;-49
2022/05/17 10:22:35;;;;;;;;;;;;;;;20.80;39.17;101859.09;5091555;28;19951;-50
2022/05/17 10:25:09;;;;;;;;;;;;;;;20.85;39.15;101862.25;5092519;28;19920;-50
2022/05/17 10:27:44;;;;;;;;;;;;;;;20.88;39.38;101859.31;5091073;28;19920;-47
2022/05/17 10:30:16;;;;;;;;;;;;;;;20.95;39.02;101860.47;5091723;28;19916;-48
2022/05/17 10:32:59;;;;;;;;;;;;;;;21.01;39.12;101862.66;5089990;28;19913;-46
2022/05/17 10:35:42;;;;;;;;;;;;;;;21.08;39.14;101859.47;5089081;28;19926;-46
2022/05/17 10:38:34;;;;;;;;;;;;;;;21.15;38.98;101855.28;5092234;28;19918;-49
2022/05/17 10:41:03;;;;;;;;;;;;;;;21.23;38.71;101851.94;5088115;28;19920;-46
2022/05/17 10:43:28;;;;;;;;;;;;;;;21.28;39.06;101855.91;5091642;28;19999;-47
2022/05/17 10:46:00;;;;;;;;;;;;;;;21.34;38.84;101856.38;5093394;28;20079;-50
2022/05/17 10:48:48;;;;;;;;;;;;;;;21.42;38.71;101856.53;5088957;28;20032;-46
2022/05/17 10:51:14;;;;;;;;;;;;;;;21.49;38.43;101847.00;5087300;28;19927;-46
2022/05/17 10:53:39;;;;;;;;;;;;;;;21.54;38.64;101849.28;5091674;28;19920;-47
2022/05/17 10:56:04;;;;;;;;;;;;;;;21.58;38.23;101850.72;5092140;28;20402;-49
2022/05/17 10:58:37;;;;;;;;;;;;;;;21.61;38.41;101843.28;5088237;28;19912;-46
2022/05/17 11:01:09;;;;;;;;;;;;;;;21.69;38.15;101847.97;5091480;28;19916;-46
2022/05/17 11:03:47;;;;;;;;;;;;;;;21.78;38.24;101851.69;5090384;28;19920;-47
2022/05/17 11:06:15;;;;;;;;;;;;;;;21.86;38.22;101854.50;5089781;28;20414;-46
2022/05/17 11:08:41;;;;;;;;;;;;;;;21.89;38.07;101848.88;5088074;28;19921;-51
2022/05/17 11:11:06;;;;;;;;;;;;;;;21.91;37.58;101848.75;5089480;28;19912;-46
2022/05/17 11:13:35;;;;;;;;;;;;;;;21.86;37.93;101846.47;5092832;28;19951;-49
2022/05/17 11:16:07;;;;;;;;;;;;;;;21.91;38.10;101848.75;5088713;28;19912;-52
2022/05/17 11:18:51;;;;;;;;;;;;;;;21.97;37.71;101856.25;5088883;28;19923;-46
2022/05/17 11:21:18;;;;;;;;;;;;;;;22.02;37.49;101861.19;5093771;28;19965;-46
2022/05/17 11:24:01;;;;;;;;;;;;;;;22.02;37.58;101847.78;5088419;28;20011;-48
2022/05/17 11:26:44;;;;;;;;;;;;;;;22.00;37.74;101853.28;5090101;28;20283;-47
2022/05/17 11:29:28;;;;;;;;;;;;;;;22.00;37.65;101855.13;5091301;28;20269;-48
2022/05/17 11:31:53;;;;;;;;;;;;;;;22.04;37.64;101854.72;5089917;28;20019;-46
2022/05/17 11:34:21;;;;;;;;;;;;;;;22.06;37.43;101849.22;5089771;28;20016;-47
2022/05/17 11:36:47;;;;;;;;;;;;;;;22.08;37.76;101856.13;5090296;28;19943;-47
2022/05/17 11:39:31;;;;;;;;;;;;;;;22.11;37.56;101857.69;5089662;28;19935;-46
2022/05/17 11:42:10;;;;;;;;;;;;;;;22.15;37.36;101859.13;5089342;28;19919;-47
2022/05/17 11:44:40;;;;;;;;;;;;;;;22.22;37.40;101854.91;5086743;28;20321;-49
2022/05/17 11:47:25;;;;;;;;;;;;;;;22.30;37.38;101858.72;5090743;28;19912;-47
2022/05/17 11:49:51;;;;;;;;;;;;;;;22.34;36.90;101863.66;5088676;28;19924;-48
2022/05/17 11:52:24;;;;;;;;;;;;;;;22.36;37.17;101860.84;5090574;28;19923;-48
2022/05/17 11:54:51;;;;;;;;;;;;;;;22.37;37.17;101860.72;5091380;28;19968;-49
2022/05/17 11:57:16;;;;;;;;;;;;;;;22.38;36.91;101857.06;5089622;28;19964;-51
2022/05/17 11:59:42;;;;;;;;;;;;;;;22.39;37.00;101856.03;5091533;28;19912;-48
2022/05/17 12:02:09;;;;;;;;;;;;;;;22.43;37.32;101856.66;5090201;28;19912;-50
2022/05/17 12:04:37;;;;;;;;;;;;;;;22.51;36.96;101858.63;5087461;28;20416;-50